Flight Track Log - Related Links

Times and Time Zones

All times are in EDT time to prevent confusion due to time zone crossing. See the N711MD flight status page for this flight to view local times or setup timezone preferences in your user account.


Time Position Orientation Groundspeed Altitude Reporting Facility
EDT Latitude Longitude Course Direction KTS MPH feet Rate Location/Type
Sat 09:41:35 PM 42.2167 -71.1833 298° West 134 154 1,100  Level KA90
Sat 09:42:59 PM 42.2500 -71.2667 298° West 196 226 3,000 1,708 Climbing KA90
Sat 09:43:59 PM 42.2333 -71.3333 251° West 213 245 5,200 2,100 Climbing KA90
Sat 09:44:59 PM 42.2333 -71.4167 270° West 205 236 7,200 1,585 Climbing KA90
Sat 09:45:45 PM 42.2131 -71.4842 248° West 217 250 8,000 453 Climbing Boston Center
Sat 09:46:45 PM 42.2033 -71.5797 262° West 263 303 8,000  Level Boston Center
Sat 09:47:46 PM 42.1872 -71.6781 258° West 272 313 8,000  Level Boston Center
Sat 09:48:47 PM 42.1631 -71.7736 251° West 262 302 8,000  Level Boston Center
Sat 09:49:53 PM 42.1406 -71.8744 253° West 258 297 8,000  Level Boston Center
Sat 09:50:54 PM 42.0992 -71.9533 235° Southwest 267 307 8,000  Level Boston Center
Sat 09:51:55 PM 42.0411 -72.0125 217° Southwest 265 305 8,000  Level Boston Center
Sat 09:52:55 PM 41.9808 -72.0797 220° Southwest 267 307 8,000  Level Boston Center
Sat 09:53:56 PM 41.9269 -72.1444 222° Southwest 264 304 8,000  Level Boston Center
Sat 09:54:57 PM 41.8708 -72.2086 220° Southwest 265 305 8,000  Level Boston Center
Sat 09:55:57 PM 41.8125 -72.2758 221° Southwest 266 306 8,000 -496 Level Boston Center
Sat 09:56:58 PM 41.7542 -72.3428 221° Southwest 271 312 7,000 -938 Descending Boston Center
Sat 09:58:05 PM 41.6917 -72.4122 220° Southwest 266 306 6,000 -709 Descending Boston Center
Sat 09:59:05 PM 41.6375 -72.4761 221° Southwest 261 300 5,500 -667 Descending Boston Center
Sat 10:01:05 PM 41.5333 -72.6000 222° Southwest 247 284 4,000 -517 Descending New York TRACON
Sat 10:01:59 PM 41.4833 -72.6500 217° Southwest 225 259 4,000 -316 Level New York TRACON
Sat 10:02:59 PM 41.4333 -72.7000 217° Southwest 225 259 3,400 -645 Descending New York TRACON
Sat 10:04:00 PM 41.3833 -72.7500 217° Southwest 223 257 2,700 -694 Descending New York TRACON
Sat 10:05:00 PM 41.3500 -72.8167 236° Southwest 227 261 2,000 -700 Descending New York TRACON

Login

Don't have an account? Register now (free) for customized features, flight alerts, and more!